sensor_id;sensor_type;location;lat;lon;timestamp;P1;durP1;ratioP1;P2;durP2;ratioP2
14096;SDS011;7125;48.106;11.544;2022-11-20T00:01:28;2.70;;;2.20;;
14096;SDS011;7125;48.106;11.544;2022-11-20T00:03:56;2.00;;;1.37;;
14096;SDS011;7125;48.106;11.544;2022-11-20T00:06:24;2.50;;;2.10;;
14096;SDS011;7125;48.106;11.544;2022-11-20T00:08:53;1.73;;;1.63;;
14096;SDS011;7125;48.106;11.544;2022-11-20T00:11:23;2.27;;;2.00;;
14096;SDS011;7125;48.106;11.544;2022-11-20T00:13:52;2.80;;;1.80;;
14096;SDS011;7125;48.106;11.544;2022-11-20T00:16:20;3.63;;;2.63;;
14096;SDS011;7125;48.106;11.544;2022-11-20T00:18:49;2.97;;;2.33;;
14096;SDS011;7125;48.106;11.544;2022-11-20T00:21:17;3.03;;;2.10;;
14096;SDS011;7125;48.106;11.544;2022-11-20T00:23:45;2.23;;;2.03;;
14096;SDS011;7125;48.106;11.544;2022-11-20T00:26:13;2.13;;;1.93;;
14096;SDS011;7125;48.106;11.544;2022-11-20T00:28:43;3.20;;;2.23;;
14096;SDS011;7125;48.106;11.544;2022-11-20T00:31:15;3.47;;;2.30;;
14096;SDS011;7125;48.106;11.544;2022-11-20T00:33:42;1.90;;;1.60;;
14096;SDS011;7125;48.106;11.544;2022-11-20T00:36:11;2.07;;;1.80;;
14096;SDS011;7125;48.106;11.544;2022-11-20T00:38:38;2.40;;;1.83;;
14096;SDS011;7125;48.106;11.544;2022-11-20T00:41:06;2.03;;;1.83;;
14096;SDS011;7125;48.106;11.544;2022-11-20T00:43:34;2.30;;;2.00;;
14096;SDS011;7125;48.106;11.544;2022-11-20T00:46:05;3.57;;;2.23;;
14096;SDS011;7125;48.106;11.544;2022-11-20T00:48:34;2.67;;;2.47;;
14096;SDS011;7125;48.106;11.544;2022-11-20T00:51:01;2.73;;;2.33;;
14096;SDS011;7125;48.106;11.544;2022-11-20T00:53:30;2.43;;;2.23;;
14096;SDS011;7125;48.106;11.544;2022-11-20T00:55:58;2.40;;;2.20;;
14096;SDS011;7125;48.106;11.544;2022-11-20T00:58:28;5.57;;;2.53;;
14096;SDS011;7125;48.106;11.544;2022-11-20T01:00:59;1.77;;;1.60;;
14096;SDS011;7125;48.106;11.544;2022-11-20T01:03:30;2.93;;;1.87;;
14096;SDS011;7125;48.106;11.544;2022-11-20T01:05:59;2.80;;;2.43;;
14096;SDS011;7125;48.106;11.544;2022-11-20T01:08:29;5.03;;;2.17;;
14096;SDS011;7125;48.106;11.544;2022-11-20T01:10:58;2.97;;;2.20;;
14096;SDS011;7125;48.106;11.544;2022-11-20T01:13:26;2.43;;;2.23;;
14096;SDS011;7125;48.106;11.544;2022-11-20T01:16:06;2.10;;;2.00;;
14096;SDS011;7125;48.106;11.544;2022-11-20T01:18:36;4.30;;;2.53;;
14096;SDS011;7125;48.106;11.544;2022-11-20T01:21:06;2.20;;;2.00;;
14096;SDS011;7125;48.106;11.544;2022-11-20T01:23:35;3.80;;;2.43;;
14096;SDS011;7125;48.106;11.544;2022-11-20T01:26:06;1.90;;;1.70;;
14096;SDS011;7125;48.106;11.544;2022-11-20T01:28:35;2.63;;;2.17;;
14096;SDS011;7125;48.106;11.544;2022-11-20T01:31:09;3.50;;;2.30;;
14096;SDS011;7125;48.106;11.544;2022-11-20T01:33:39;2.40;;;2.10;;
14096;SDS011;7125;48.106;11.544;2022-11-20T01:36:07;3.47;;;1.97;;
14096;SDS011;7125;48.106;11.544;2022-11-20T01:38:35;2.77;;;2.40;;
14096;SDS011;7125;48.106;11.544;2022-11-20T01:41:02;2.97;;;2.63;;
14096;SDS011;7125;48.106;11.544;2022-11-20T01:43:29;2.17;;;1.97;;
14096;SDS011;7125;48.106;11.544;2022-11-20T01:46:08;2.00;;;1.90;;
14096;SDS011;7125;48.106;11.544;2022-11-20T01:48:44;2.07;;;1.77;;
14096;SDS011;7125;48.106;11.544;2022-11-20T01:51:18;2.73;;;1.90;;
14096;SDS011;7125;48.106;11.544;2022-11-20T01:53:50;2.10;;;1.90;;
14096;SDS011;7125;48.106;11.544;2022-11-20T01:56:20;3.07;;;2.20;;
14096;SDS011;7125;48.106;11.544;2022-11-20T01:58:49;2.37;;;2.17;;
14096;SDS011;7125;48.106;11.544;2022-11-20T02:01:19;3.00;;;1.93;;
14096;SDS011;7125;48.106;11.544;2022-11-20T02:03:49;3.87;;;1.80;;
14096;SDS011;7125;48.106;11.544;2022-11-20T02:06:18;3.20;;;2.40;;
14096;SDS011;7125;48.106;11.544;2022-11-20T02:08:50;4.13;;;3.73;;
14096;SDS011;7125;48.106;11.544;2022-11-20T02:11:17;2.73;;;1.90;;
14096;SDS011;7125;48.106;11.544;2022-11-20T02:13:44;1.80;;;1.70;;
14096;SDS011;7125;48.106;11.544;2022-11-20T02:16:12;2.37;;;2.17;;
14096;SDS011;7125;48.106;11.544;2022-11-20T02:18:41;1.73;;;1.63;;
14096;SDS011;7125;48.106;11.544;2022-11-20T02:21:12;4.27;;;2.07;;
14096;SDS011;7125;48.106;11.544;2022-11-20T02:23:54;2.47;;;2.10;;
14096;SDS011;7125;48.106;11.544;2022-11-20T02:26:31;1.90;;;1.80;;
14096;SDS011;7125;48.106;11.544;2022-11-20T02:29:00;2.40;;;2.17;;
14096;SDS011;7125;48.106;11.544;2022-11-20T02:31:35;3.20;;;2.40;;
14096;SDS011;7125;48.106;11.544;2022-11-20T02:34:04;2.97;;;2.53;;
14096;SDS011;7125;48.106;11.544;2022-11-20T02:36:31;2.70;;;2.10;;
14096;SDS011;7125;48.106;11.544;2022-11-20T02:39:01;2.50;;;1.80;;
14096;SDS011;7125;48.106;11.544;2022-11-20T02:41:33;2.97;;;1.80;;
14096;SDS011;7125;48.106;11.544;2022-11-20T02:44:01;4.93;;;2.20;;
14096;SDS011;7125;48.106;11.544;2022-11-20T02:46:28;2.40;;;2.13;;
14096;SDS011;7125;48.106;11.544;2022-11-20T02:48:55;1.77;;;1.67;;
14096;SDS011;7125;48.106;11.544;2022-11-20T02:51:22;2.90;;;2.70;;
14096;SDS011;7125;48.106;11.544;2022-11-20T02:53:50;3.23;;;2.23;;
14096;SDS011;7125;48.106;11.544;2022-11-20T02:56:18;3.37;;;2.77;;
14096;SDS011;7125;48.106;11.544;2022-11-20T02:58:45;3.83;;;2.63;;
14096;SDS011;7125;48.106;11.544;2022-11-20T03:01:12;2.50;;;2.30;;
14096;SDS011;7125;48.106;11.544;2022-11-20T03:03:39;3.20;;;2.37;;
14096;SDS011;7125;48.106;11.544;2022-11-20T03:06:06;4.73;;;2.87;;
14096;SDS011;7125;48.106;11.544;2022-11-20T03:08:34;2.13;;;1.90;;
14096;SDS011;7125;48.106;11.544;2022-11-20T03:11:04;4.93;;;3.53;;
14096;SDS011;7125;48.106;11.544;2022-11-20T03:13:33;2.67;;;2.33;;
14096;SDS011;7125;48.106;11.544;2022-11-20T03:16:05;2.40;;;2.20;;
14096;SDS011;7125;48.106;11.544;2022-11-20T03:18:34;2.23;;;2.03;;
14096;SDS011;7125;48.106;11.544;2022-11-20T03:21:01;2.90;;;2.30;;
14096;SDS011;7125;48.106;11.544;2022-11-20T03:23:28;2.33;;;2.20;;
14096;SDS011;7125;48.106;11.544;2022-11-20T03:26:06;3.83;;;2.73;;
14096;SDS011;7125;48.106;11.544;2022-11-20T03:28:36;4.03;;;2.60;;
14096;SDS011;7125;48.106;11.544;2022-11-20T03:31:09;3.90;;;2.90;;
14096;SDS011;7125;48.106;11.544;2022-11-20T03:33:38;2.60;;;2.40;;
14096;SDS011;7125;48.106;11.544;2022-11-20T03:36:07;2.10;;;1.90;;
14096;SDS011;7125;48.106;11.544;2022-11-20T03:38:37;2.80;;;2.60;;
14096;SDS011;7125;48.106;11.544;2022-11-20T03:41:04;2.40;;;2.20;;
14096;SDS011;7125;48.106;11.544;2022-11-20T03:43:36;4.90;;;2.83;;
14096;SDS011;7125;48.106;11.544;2022-11-20T03:46:04;2.97;;;2.70;;
14096;SDS011;7125;48.106;11.544;2022-11-20T03:48:33;2.80;;;2.50;;
14096;SDS011;7125;48.106;11.544;2022-11-20T03:51:08;2.63;;;2.43;;
14096;SDS011;7125;48.106;11.544;2022-11-20T03:53:36;3.83;;;2.30;;
14096;SDS011;7125;48.106;11.544;2022-11-20T03:56:03;2.50;;;2.30;;
14096;SDS011;7125;48.106;11.544;2022-11-20T03:58:32;6.73;;;2.47;;
14096;SDS011;7125;48.106;11.544;2022-11-20T04:01:05;2.00;;;1.90;;
14096;SDS011;7125;48.106;11.544;2022-11-20T04:03:33;3.23;;;2.23;;
14096;SDS011;7125;48.106;11.544;2022-11-20T04:06:04;2.23;;;2.03;;
14096;SDS011;7125;48.106;11.544;2022-11-20T04:08:31;2.40;;;2.20;;
14096;SDS011;7125;48.106;11.544;2022-11-20T04:11:08;2.60;;;2.37;;
14096;SDS011;7125;48.106;11.544;2022-11-20T04:13:36;5.03;;;2.23;;
14096;SDS011;7125;48.106;11.544;2022-11-20T04:16:05;4.53;;;2.47;;
14096;SDS011;7125;48.106;11.544;2022-11-20T04:18:32;3.20;;;2.50;;
14096;SDS011;7125;48.106;11.544;2022-11-20T04:21:00;2.70;;;2.43;;
14096;SDS011;7125;48.106;11.544;2022-11-20T04:23:27;3.20;;;2.70;;
14096;SDS011;7125;48.106;11.544;2022-11-20T04:25:54;2.37;;;2.17;;
14096;SDS011;7125;48.106;11.544;2022-11-20T04:28:26;2.53;;;2.33;;
14096;SDS011;7125;48.106;11.544;2022-11-20T04:30:53;4.50;;;2.60;;
14096;SDS011;7125;48.106;11.544;2022-11-20T04:33:21;2.83;;;2.43;;
14096;SDS011;7125;48.106;11.544;2022-11-20T04:35:48;2.40;;;2.20;;
14096;SDS011;7125;48.106;11.544;2022-11-20T04:38:15;3.37;;;2.53;;
14096;SDS011;7125;48.106;11.544;2022-11-20T04:40:42;2.50;;;2.30;;
14096;SDS011;7125;48.106;11.544;2022-11-20T04:43:09;3.33;;;2.40;;
14096;SDS011;7125;48.106;11.544;2022-11-20T04:45:36;2.47;;;2.13;;
14096;SDS011;7125;48.106;11.544;2022-11-20T04:48:03;3.03;;;2.73;;
14096;SDS011;7125;48.106;11.544;2022-11-20T04:50:33;3.97;;;2.33;;
14096;SDS011;7125;48.106;11.544;2022-11-20T04:53:00;2.97;;;2.77;;
14096;SDS011;7125;48.106;11.544;2022-11-20T04:55:27;2.80;;;2.47;;
14096;SDS011;7125;48.106;11.544;2022-11-20T04:57:54;2.77;;;2.47;;
14096;SDS011;7125;48.106;11.544;2022-11-20T05:00:22;5.37;;;3.00;;
14096;SDS011;7125;48.106;11.544;2022-11-20T05:02:49;3.60;;;2.63;;
14096;SDS011;7125;48.106;11.544;2022-11-20T05:05:16;3.43;;;2.83;;
14096;SDS011;7125;48.106;11.544;2022-11-20T05:07:44;2.70;;;2.50;;
14096;SDS011;7125;48.106;11.544;2022-11-20T05:10:11;5.07;;;2.77;;
14096;SDS011;7125;48.106;11.544;2022-11-20T05:12:38;2.73;;;2.53;;
14096;SDS011;7125;48.106;11.544;2022-11-20T05:15:05;4.00;;;2.70;;
14096;SDS011;7125;48.106;11.544;2022-11-20T05:17:32;3.80;;;3.23;;
14096;SDS011;7125;48.106;11.544;2022-11-20T05:19:59;3.13;;;2.80;;
14096;SDS011;7125;48.106;11.544;2022-11-20T05:22:27;3.07;;;2.77;;
14096;SDS011;7125;48.106;11.544;2022-11-20T05:24:55;3.40;;;3.03;;
14096;SDS011;7125;48.106;11.544;2022-11-20T05:27:22;2.83;;;2.53;;
14096;SDS011;7125;48.106;11.544;2022-11-20T05:29:49;2.47;;;2.23;;
14096;SDS011;7125;48.106;11.544;2022-11-20T05:32:16;3.37;;;3.07;;
14096;SDS011;7125;48.106;11.544;2022-11-20T05:34:43;2.67;;;2.47;;
14096;SDS011;7125;48.106;11.544;2022-11-20T05:37:10;3.23;;;2.93;;
14096;SDS011;7125;48.106;11.544;2022-11-20T05:39:36;2.60;;;2.40;;
14096;SDS011;7125;48.106;11.544;2022-11-20T05:42:05;3.30;;;2.50;;
14096;SDS011;7125;48.106;11.544;2022-11-20T05:44:49;3.40;;;2.83;;
14096;SDS011;7125;48.106;11.544;2022-11-20T05:47:17;2.47;;;2.27;;
14096;SDS011;7125;48.106;11.544;2022-11-20T05:49:44;3.27;;;2.97;;
14096;SDS011;7125;48.106;11.544;2022-11-20T05:52:11;3.57;;;3.27;;
14096;SDS011;7125;48.106;11.544;2022-11-20T05:54:38;2.33;;;2.20;;
14096;SDS011;7125;48.106;11.544;2022-11-20T05:57:06;4.03;;;2.40;;
14096;SDS011;7125;48.106;11.544;2022-11-20T05:59:33;2.80;;;2.40;;
14096;SDS011;7125;48.106;11.544;2022-11-20T06:02:00;2.60;;;2.40;;
14096;SDS011;7125;48.106;11.544;2022-11-20T06:04:27;4.50;;;3.20;;
14096;SDS011;7125;48.106;11.544;2022-11-20T06:06:54;2.33;;;2.13;;
14096;SDS011;7125;48.106;11.544;2022-11-20T06:09:21;2.43;;;2.23;;
14096;SDS011;7125;48.106;11.544;2022-11-20T06:11:48;2.40;;;2.20;;
14096;SDS011;7125;48.106;11.544;2022-11-20T06:14:16;3.07;;;2.07;;
14096;SDS011;7125;48.106;11.544;2022-11-20T06:16:43;2.10;;;1.90;;
14096;SDS011;7125;48.106;11.544;2022-11-20T06:19:10;2.40;;;2.20;;
14096;SDS011;7125;48.106;11.544;2022-11-20T06:21:38;2.20;;;2.00;;
14096;SDS011;7125;48.106;11.544;2022-11-20T06:24:06;2.27;;;2.07;;
14096;SDS011;7125;48.106;11.544;2022-11-20T06:26:34;2.53;;;2.20;;
14096;SDS011;7125;48.106;11.544;2022-11-20T06:29:01;2.40;;;2.20;;
14096;SDS011;7125;48.106;11.544;2022-11-20T06:31:30;1.73;;;1.57;;
14096;SDS011;7125;48.106;11.544;2022-11-20T06:34:00;1.97;;;1.80;;
14096;SDS011;7125;48.106;11.544;2022-11-20T06:36:26;3.77;;;1.50;;
14096;SDS011;7125;48.106;11.544;2022-11-20T06:38:54;1.80;;;1.70;;
14096;SDS011;7125;48.106;11.544;2022-11-20T06:41:21;5.63;;;3.30;;
14096;SDS011;7125;48.106;11.544;2022-11-20T06:43:50;1.77;;;1.67;;
14096;SDS011;7125;48.106;11.544;2022-11-20T06:46:17;1.77;;;1.67;;
14096;SDS011;7125;48.106;11.544;2022-11-20T06:48:47;4.40;;;1.70;;
14096;SDS011;7125;48.106;11.544;2022-11-20T06:51:16;1.77;;;1.67;;
14096;SDS011;7125;48.106;11.544;2022-11-20T06:53:43;2.27;;;1.40;;
14096;SDS011;7125;48.106;11.544;2022-11-20T06:56:10;1.73;;;1.63;;
14096;SDS011;7125;48.106;11.544;2022-11-20T06:58:37;2.93;;;2.00;;
14096;SDS011;7125;48.106;11.544;2022-11-20T07:01:05;2.30;;;1.77;;
14096;SDS011;7125;48.106;11.544;2022-11-20T07:03:34;2.30;;;1.30;;
14096;SDS011;7125;48.106;11.544;2022-11-20T07:06:03;2.07;;;1.27;;
14096;SDS011;7125;48.106;11.544;2022-11-20T07:08:31;1.93;;;1.67;;
14096;SDS011;7125;48.106;11.544;2022-11-20T07:10:59;2.00;;;1.70;;
14096;SDS011;7125;48.106;11.544;2022-11-20T07:13:26;2.87;;;1.87;;
14096;SDS011;7125;48.106;11.544;2022-11-20T07:15:55;2.73;;;2.43;;
14096;SDS011;7125;48.106;11.544;2022-11-20T07:18:25;2.33;;;2.13;;
14096;SDS011;7125;48.106;11.544;2022-11-20T07:20:53;2.60;;;2.40;;
14096;SDS011;7125;48.106;11.544;2022-11-20T07:23:22;4.07;;;2.80;;
14096;SDS011;7125;48.106;11.544;2022-11-20T07:25:49;3.23;;;2.40;;
14096;SDS011;7125;48.106;11.544;2022-11-20T07:28:15;3.30;;;2.60;;
14096;SDS011;7125;48.106;11.544;2022-11-20T07:30:48;4.90;;;2.30;;
14096;SDS011;7125;48.106;11.544;2022-11-20T07:33:16;2.67;;;2.43;;
14096;SDS011;7125;48.106;11.544;2022-11-20T07:35:43;3.23;;;2.57;;
14096;SDS011;7125;48.106;11.544;2022-11-20T07:38:10;2.40;;;2.20;;
14096;SDS011;7125;48.106;11.544;2022-11-20T07:40:40;4.77;;;4.00;;
14096;SDS011;7125;48.106;11.544;2022-11-20T07:43:07;3.83;;;2.87;;
14096;SDS011;7125;48.106;11.544;2022-11-20T07:45:33;2.43;;;1.73;;
14096;SDS011;7125;48.106;11.544;2022-11-20T07:48:01;3.27;;;2.57;;
14096;SDS011;7125;48.106;11.544;2022-11-20T07:50:29;3.13;;;2.03;;
14096;SDS011;7125;48.106;11.544;2022-11-20T07:53:00;3.07;;;2.87;;
14096;SDS011;7125;48.106;11.544;2022-11-20T07:55:28;3.10;;;2.80;;
14096;SDS011;7125;48.106;11.544;2022-11-20T07:57:57;2.70;;;2.33;;
14096;SDS011;7125;48.106;11.544;2022-11-20T08:00:24;2.13;;;1.93;;
14096;SDS011;7125;48.106;11.544;2022-11-20T08:02:52;2.43;;;1.97;;
14096;SDS011;7125;48.106;11.544;2022-11-20T08:05:19;2.30;;;2.07;;
14096;SDS011;7125;48.106;11.544;2022-11-20T08:07:46;2.23;;;1.90;;
14096;SDS011;7125;48.106;11.544;2022-11-20T08:10:14;1.87;;;1.73;;
14096;SDS011;7125;48.106;11.544;2022-11-20T08:12:45;1.87;;;1.77;;
14096;SDS011;7125;48.106;11.544;2022-11-20T08:15:32;2.43;;;2.23;;
14096;SDS011;7125;48.106;11.544;2022-11-20T08:18:00;2.20;;;2.10;;
14096;SDS011;7125;48.106;11.544;2022-11-20T08:20:28;2.97;;;2.70;;
14096;SDS011;7125;48.106;11.544;2022-11-20T08:22:58;3.70;;;3.27;;
14096;SDS011;7125;48.106;11.544;2022-11-20T08:25:28;5.30;;;2.60;;
14096;SDS011;7125;48.106;11.544;2022-11-20T08:27:56;2.00;;;1.80;;
14096;SDS011;7125;48.106;11.544;2022-11-20T08:30:24;2.40;;;2.10;;
14096;SDS011;7125;48.106;11.544;2022-11-20T08:32:52;2.90;;;2.43;;
14096;SDS011;7125;48.106;11.544;2022-11-20T08:35:20;2.57;;;2.13;;
14096;SDS011;7125;48.106;11.544;2022-11-20T08:37:47;2.40;;;2.07;;
14096;SDS011;7125;48.106;11.544;2022-11-20T08:40:14;2.63;;;1.93;;
14096;SDS011;7125;48.106;11.544;2022-11-20T08:42:46;1.87;;;1.77;;
14096;SDS011;7125;48.106;11.544;2022-11-20T08:45:13;3.67;;;1.80;;
14096;SDS011;7125;48.106;11.544;2022-11-20T08:47:40;2.33;;;2.13;;
14096;SDS011;7125;48.106;11.544;2022-11-20T08:50:09;1.73;;;1.63;;
14096;SDS011;7125;48.106;11.544;2022-11-20T08:52:36;1.63;;;1.53;;
14096;SDS011;7125;48.106;11.544;2022-11-20T08:55:05;1.70;;;1.60;;
14096;SDS011;7125;48.106;11.544;2022-11-20T08:57:34;2.90;;;2.03;;
14096;SDS011;7125;48.106;11.544;2022-11-20T09:00:02;2.37;;;1.80;;
14096;SDS011;7125;48.106;11.544;2022-11-20T09:02:30;1.47;;;1.37;;
14096;SDS011;7125;48.106;11.544;2022-11-20T09:04:57;1.37;;;1.27;;
14096;SDS011;7125;48.106;11.544;2022-11-20T09:07:25;1.67;;;1.40;;
14096;SDS011;7125;48.106;11.544;2022-11-20T09:09:52;2.17;;;1.53;;
14096;SDS011;7125;48.106;11.544;2022-11-20T09:12:22;1.33;;;1.23;;
14096;SDS011;7125;48.106;11.544;2022-11-20T09:14:50;1.53;;;1.30;;
14096;SDS011;7125;48.106;11.544;2022-11-20T09:17:17;1.47;;;1.20;;
14096;SDS011;7125;48.106;11.544;2022-11-20T09:19:45;1.47;;;1.13;;
14096;SDS011;7125;48.106;11.544;2022-11-20T09:22:13;2.90;;;1.37;;
14096;SDS011;7125;48.106;11.544;2022-11-20T09:24:42;2.40;;;1.50;;
14096;SDS011;7125;48.106;11.544;2022-11-20T09:27:09;1.17;;;1.03;;
14096;SDS011;7125;48.106;11.544;2022-11-20T09:29:38;1.43;;;1.03;;
14096;SDS011;7125;48.106;11.544;2022-11-20T09:32:06;1.10;;;1.00;;
14096;SDS011;7125;48.106;11.544;2022-11-20T09:34:33;1.03;;;0.90;;
14096;SDS011;7125;48.106;11.544;2022-11-20T09:37:00;1.80;;;1.17;;
14096;SDS011;7125;48.106;11.544;2022-11-20T09:39:27;2.37;;;1.17;;
14096;SDS011;7125;48.106;11.544;2022-11-20T09:45:09;2.97;;;1.30;;
14096;SDS011;7125;48.106;11.544;2022-11-20T09:47:48;1.23;;;1.10;;
14096;SDS011;7125;48.106;11.544;2022-11-20T09:50:25;0.93;;;0.93;;
14096;SDS011;7125;48.106;11.544;2022-11-20T09:53:04;1.00;;;0.90;;
14096;SDS011;7125;48.106;11.544;2022-11-20T09:55:40;1.47;;;1.20;;
14096;SDS011;7125;48.106;11.544;2022-11-20T09:58:13;1.13;;;1.03;;
14096;SDS011;7125;48.106;11.544;2022-11-20T10:00:45;2.97;;;1.10;;
14096;SDS011;7125;48.106;11.544;2022-11-20T10:03:16;0.70;;;0.50;;
14096;SDS011;7125;48.106;11.544;2022-11-20T10:05:49;1.00;;;0.90;;
14096;SDS011;7125;48.106;11.544;2022-11-20T10:08:21;1.93;;;1.23;;
14096;SDS011;7125;48.106;11.544;2022-11-20T10:10:52;1.20;;;1.10;;
14096;SDS011;7125;48.106;11.544;2022-11-20T10:13:30;1.10;;;0.90;;
14096;SDS011;7125;48.106;11.544;2022-11-20T10:16:10;1.00;;;0.87;;
14096;SDS011;7125;48.106;11.544;2022-11-20T10:18:50;1.63;;;1.07;;
14096;SDS011;7125;48.106;11.544;2022-11-20T10:21:27;1.00;;;0.87;;
14096;SDS011;7125;48.106;11.544;2022-11-20T10:27:06;1.73;;;1.10;;
14096;SDS011;7125;48.106;11.544;2022-11-20T10:29:51;1.43;;;1.33;;
14096;SDS011;7125;48.106;11.544;2022-11-20T10:32:25;1.10;;;0.90;;
14096;SDS011;7125;48.106;11.544;2022-11-20T10:35:00;1.50;;;1.07;;
14096;SDS011;7125;48.106;11.544;2022-11-20T10:37:31;0.70;;;0.70;;
14096;SDS011;7125;48.106;11.544;2022-11-20T10:40:04;4.33;;;0.90;;
14096;SDS011;7125;48.106;11.544;2022-11-20T10:42:45;2.50;;;1.40;;
14096;SDS011;7125;48.106;11.544;2022-11-20T10:45:19;0.80;;;0.80;;
14096;SDS011;7125;48.106;11.544;2022-11-20T10:47:59;1.23;;;1.13;;
14096;SDS011;7125;48.106;11.544;2022-11-20T10:50:40;0.97;;;0.80;;
14096;SDS011;7125;48.106;11.544;2022-11-20T10:53:17;1.50;;;0.77;;
14096;SDS011;7125;48.106;11.544;2022-11-20T10:55:54;4.03;;;1.17;;
14096;SDS011;7125;48.106;11.544;2022-11-20T10:58:28;1.40;;;1.30;;
14096;SDS011;7125;48.106;11.544;2022-11-20T11:01:11;0.60;;;0.60;;
14096;SDS011;7125;48.106;11.544;2022-11-20T11:03:40;3.20;;;0.90;;
14096;SDS011;7125;48.106;11.544;2022-11-20T11:06:10;0.70;;;0.60;;
14096;SDS011;7125;48.106;11.544;2022-11-20T11:08:44;1.83;;;1.00;;
14096;SDS011;7125;48.106;11.544;2022-11-20T11:11:18;1.00;;;0.90;;
14096;SDS011;7125;48.106;11.544;2022-11-20T11:13:49;1.07;;;0.93;;
14096;SDS011;7125;48.106;11.544;2022-11-20T11:16:21;0.70;;;0.70;;
14096;SDS011;7125;48.106;11.544;2022-11-20T11:18:49;0.90;;;0.70;;
14096;SDS011;7125;48.106;11.544;2022-11-20T11:21:21;1.30;;;1.20;;
14096;SDS011;7125;48.106;11.544;2022-11-20T11:23:57;1.00;;;0.80;;
14096;SDS011;7125;48.106;11.544;2022-11-20T11:26:26;1.80;;;1.03;;
14096;SDS011;7125;48.106;11.544;2022-11-20T11:28:55;1.20;;;1.10;;
14096;SDS011;7125;48.106;11.544;2022-11-20T11:31:25;1.43;;;1.13;;
14096;SDS011;7125;48.106;11.544;2022-11-20T11:34:03;1.73;;;1.07;;
14096;SDS011;7125;48.106;11.544;2022-11-20T11:36:31;0.70;;;0.60;;
14096;SDS011;7125;48.106;11.544;2022-11-20T11:39:00;1.23;;;0.90;;
14096;SDS011;7125;48.106;11.544;2022-11-20T11:41:30;2.10;;;1.13;;
14096;SDS011;7125;48.106;11.544;2022-11-20T11:44:00;0.90;;;0.70;;
14096;SDS011;7125;48.106;11.544;2022-11-20T11:46:58;1.10;;;1.00;;
14096;SDS011;7125;48.106;11.544;2022-11-20T11:49:25;2.73;;;1.00;;
14096;SDS011;7125;48.106;11.544;2022-11-20T11:52:00;1.50;;;0.87;;
14096;SDS011;7125;48.106;11.544;2022-11-20T11:54:34;2.13;;;1.27;;
14096;SDS011;7125;48.106;11.544;2022-11-20T11:57:05;2.10;;;1.00;;
14096;SDS011;7125;48.106;11.544;2022-11-20T11:59:43;0.80;;;0.67;;
14096;SDS011;7125;48.106;11.544;2022-11-20T12:02:24;0.80;;;0.77;;
14096;SDS011;7125;48.106;11.544;2022-11-20T12:04:59;1.73;;;1.00;;
14096;SDS011;7125;48.106;11.544;2022-11-20T12:07:34;1.00;;;0.90;;
14096;SDS011;7125;48.106;11.544;2022-11-20T12:10:12;1.17;;;1.00;;
14096;SDS011;7125;48.106;11.544;2022-11-20T12:12:47;2.63;;;1.03;;
14096;SDS011;7125;48.106;11.544;2022-11-20T12:15:21;1.97;;;1.37;;
14096;SDS011;7125;48.106;11.544;2022-11-20T12:17:54;1.40;;;1.13;;
14096;SDS011;7125;48.106;11.544;2022-11-20T12:20:21;1.87;;;1.20;;
14096;SDS011;7125;48.106;11.544;2022-11-20T12:22:53;1.43;;;0.90;;
14096;SDS011;7125;48.106;11.544;2022-11-20T12:25:26;1.30;;;1.20;;
14096;SDS011;7125;48.106;11.544;2022-11-20T12:28:00;1.20;;;0.97;;
14096;SDS011;7125;48.106;11.544;2022-11-20T12:30:48;1.13;;;1.03;;
14096;SDS011;7125;48.106;11.544;2022-11-20T12:33:28;1.40;;;1.27;;
14096;SDS011;7125;48.106;11.544;2022-11-20T12:36:13;1.40;;;0.90;;
14096;SDS011;7125;48.106;11.544;2022-11-20T12:38:55;1.20;;;1.10;;
14096;SDS011;7125;48.106;11.544;2022-11-20T12:41:40;1.90;;;1.00;;
14096;SDS011;7125;48.106;11.544;2022-11-20T12:44:34;1.87;;;1.23;;
14096;SDS011;7125;48.106;11.544;2022-11-20T12:51:01;1.23;;;1.20;;
14096;SDS011;7125;48.106;11.544;2022-11-20T12:53:43;2.70;;;1.30;;
14096;SDS011;7125;48.106;11.544;2022-11-20T12:56:21;1.30;;;1.00;;
14096;SDS011;7125;48.106;11.544;2022-11-20T12:59:01;1.43;;;1.03;;
14096;SDS011;7125;48.106;11.544;2022-11-20T13:01:45;1.70;;;1.33;;
14096;SDS011;7125;48.106;11.544;2022-11-20T13:04:18;3.20;;;1.60;;
14096;SDS011;7125;48.106;11.544;2022-11-20T13:07:01;1.10;;;0.80;;
14096;SDS011;7125;48.106;11.544;2022-11-20T13:09:30;1.50;;;1.40;;
14096;SDS011;7125;48.106;11.544;2022-11-20T13:12:01;1.27;;;1.17;;
14096;SDS011;7125;48.106;11.544;2022-11-20T13:14:33;3.07;;;1.67;;
14096;SDS011;7125;48.106;11.544;2022-11-20T13:17:09;1.53;;;1.13;;
14096;SDS011;7125;48.106;11.544;2022-11-20T13:19:39;2.20;;;1.37;;
14096;SDS011;7125;48.106;11.544;2022-11-20T13:22:09;2.70;;;1.40;;
14096;SDS011;7125;48.106;11.544;2022-11-20T13:24:36;3.00;;;1.30;;
14096;SDS011;7125;48.106;11.544;2022-11-20T13:27:04;1.60;;;1.43;;
14096;SDS011;7125;48.106;11.544;2022-11-20T13:29:45;3.20;;;1.67;;
14096;SDS011;7125;48.106;11.544;2022-11-20T13:32:14;2.43;;;1.40;;
14096;SDS011;7125;48.106;11.544;2022-11-20T13:34:51;1.80;;;1.70;;
14096;SDS011;7125;48.106;11.544;2022-11-20T13:37:28;1.87;;;1.77;;
14096;SDS011;7125;48.106;11.544;2022-11-20T13:40:19;2.87;;;2.50;;
14096;SDS011;7125;48.106;11.544;2022-11-20T13:42:54;6.30;;;2.30;;
14096;SDS011;7125;48.106;11.544;2022-11-20T13:45:23;1.70;;;1.60;;
14096;SDS011;7125;48.106;11.544;2022-11-20T13:47:52;2.47;;;1.60;;
14096;SDS011;7125;48.106;11.544;2022-11-20T13:50:23;1.83;;;1.73;;
14096;SDS011;7125;48.106;11.544;2022-11-20T13:53:08;1.13;;;1.03;;
14096;SDS011;7125;48.106;11.544;2022-11-20T13:55:49;1.60;;;1.23;;
14096;SDS011;7125;48.106;11.544;2022-11-20T13:58:24;1.67;;;1.33;;
14096;SDS011;7125;48.106;11.544;2022-11-20T14:01:07;1.30;;;1.20;;
14096;SDS011;7125;48.106;11.544;2022-11-20T14:03:37;2.33;;;1.47;;
14096;SDS011;7125;48.106;11.544;2022-11-20T14:06:10;2.63;;;1.70;;
14096;SDS011;7125;48.106;11.544;2022-11-20T14:08:41;1.47;;;1.30;;
14096;SDS011;7125;48.106;11.544;2022-11-20T14:11:13;1.80;;;1.47;;
14096;SDS011;7125;48.106;11.544;2022-11-20T14:13:58;2.17;;;1.80;;
14096;SDS011;7125;48.106;11.544;2022-11-20T14:16:28;2.30;;;1.70;;
14096;SDS011;7125;48.106;11.544;2022-11-20T14:18:57;1.50;;;1.40;;
14096;SDS011;7125;48.106;11.544;2022-11-20T14:21:43;1.73;;;1.63;;
14096;SDS011;7125;48.106;11.544;2022-11-20T14:24:13;1.53;;;1.43;;
14096;SDS011;7125;48.106;11.544;2022-11-20T14:26:44;2.10;;;1.50;;
14096;SDS011;7125;48.106;11.544;2022-11-20T14:29:12;1.30;;;1.20;;
14096;SDS011;7125;48.106;11.544;2022-11-20T14:31:41;2.43;;;1.13;;
14096;SDS011;7125;48.106;11.544;2022-11-20T14:34:10;1.67;;;1.03;;
14096;SDS011;7125;48.106;11.544;2022-11-20T14:36:46;1.73;;;1.33;;
14096;SDS011;7125;48.106;11.544;2022-11-20T14:39:20;1.20;;;1.10;;
14096;SDS011;7125;48.106;11.544;2022-11-20T14:41:50;1.50;;;1.40;;
14096;SDS011;7125;48.106;11.544;2022-11-20T14:44:17;1.87;;;1.37;;
14096;SDS011;7125;48.106;11.544;2022-11-20T14:46:48;1.17;;;1.00;;
14096;SDS011;7125;48.106;11.544;2022-11-20T14:49:17;0.83;;;0.60;;
14096;SDS011;7125;48.106;11.544;2022-11-20T14:51:44;0.90;;;0.80;;
14096;SDS011;7125;48.106;11.544;2022-11-20T14:54:12;2.53;;;0.73;;
14096;SDS011;7125;48.106;11.544;2022-11-20T14:56:44;0.60;;;0.50;;
14096;SDS011;7125;48.106;11.544;2022-11-20T14:59:22;1.70;;;0.80;;
14096;SDS011;7125;48.106;11.544;2022-11-20T15:01:54;0.73;;;0.30;;
14096;SDS011;7125;48.106;11.544;2022-11-20T15:04:23;0.57;;;0.50;;
14096;SDS011;7125;48.106;11.544;2022-11-20T15:06:50;0.53;;;0.40;;
14096;SDS011;7125;48.106;11.544;2022-11-20T15:09:19;0.77;;;0.40;;
14096;SDS011;7125;48.106;11.544;2022-11-20T15:11:54;0.60;;;0.53;;
14096;SDS011;7125;48.106;11.544;2022-11-20T15:14:22;0.30;;;0.30;;
14096;SDS011;7125;48.106;11.544;2022-11-20T15:16:51;1.00;;;0.73;;
14096;SDS011;7125;48.106;11.544;2022-11-20T15:19:19;1.17;;;0.77;;